Time;durP1;ratioP1;P1;durP2;ratioP2;P2;SDS_P1;SDS_P2;PMS_P1;PMS_P2;Temp;Humidity;BMP_temperature;BMP_pressure;BME280_temperature;BME280_humidity;BME280_pressure;Samples;Min_cycle;Max_cycle;Signal;HPM_P1;HPM_P2
2021/05/31 00:00:07;;;;;;;4.25;1.20;;;;;;;13.50;73.90;100581.28;1744256;81;21357;-43
2021/05/31 00:02:34;;;;;;;1.22;0.98;;;;;;;13.50;74.23;100575.92;1742696;81;21026;-42
2021/05/31 00:05:02;;;;;;;3.08;1.20;;;;;;;13.50;74.36;100578.60;1745613;80;21560;-41
2021/05/31 00:07:30;;;;;;;4.50;1.40;;;;;;;13.50;74.70;100581.28;1743911;80;20970;-39
2021/05/31 00:09:58;;;;;;;1.25;1.05;;;;;;;13.48;74.72;100573.38;1735732;80;21037;-40
2021/05/31 00:12:25;;;;;;;2.15;1.30;;;;;;;13.48;74.93;100576.50;1741069;80;21544;-40
2021/05/31 00:14:52;;;;;;;2.02;1.10;;;;;;;13.47;74.95;100575.66;1744151;81;20983;-44
2021/05/31 00:17:19;;;;;;;1.77;1.25;;;;;;;13.46;75.00;100573.95;1749154;80;21049;-43
2021/05/31 00:19:48;;;;;;;0.98;0.88;;;;;;;13.47;75.15;100570.78;1744190;80;21014;-45
2021/05/31 00:22:15;;;;;;;1.32;1.12;;;;;;;13.47;75.39;100574.80;1735494;81;20998;-41
2021/05/31 00:24:41;;;;;;;4.62;1.42;;;;;;;13.48;75.62;100571.15;1740335;80;21377;-41
2021/05/31 00:27:08;;;;;;;2.67;1.27;;;;;;;13.46;75.70;100575.78;1742368;80;20970;-43
2021/05/31 00:29:36;;;;;;;2.42;1.40;;;;;;;13.43;75.97;100570.16;1735930;80;20991;-45
2021/05/31 00:32:06;;;;;;;2.22;1.45;;;;;;;13.41;75.86;100568.05;1741801;81;21588;-43
2021/05/31 00:34:34;;;;;;;3.52;1.30;;;;;;;13.37;75.83;100571.89;1738815;80;20986;-43
2021/05/31 00:37:02;;;;;;;2.05;1.30;;;;;;;13.36;75.93;100575.06;1738758;80;20987;-42
2021/05/31 00:39:30;;;;;;;3.92;1.80;;;;;;;13.35;75.94;100576.49;1744654;80;20993;-41
2021/05/31 00:41:57;;;;;;;4.87;1.50;;;;;;;13.33;76.12;100579.30;1740574;80;21026;-43
2021/05/31 00:44:24;;;;;;;1.37;1.10;;;;;;;13.32;76.07;100574.03;1740996;80;21399;-44
2021/05/31 00:46:52;;;;;;;2.00;1.20;;;;;;;13.31;76.07;100575.01;1743354;80;21007;-47
2021/05/31 00:49:25;;;;;;;3.60;1.37;;;;;;;13.27;76.34;100572.16;1737547;81;21600;-45
2021/05/31 00:51:52;;;;;;;3.60;1.57;;;;;;;13.28;76.59;100575.19;1737162;81;21033;-47
2021/05/31 00:54:20;;;;;;;4.03;1.25;;;;;;;13.27;76.76;100577.02;1739786;81;21072;-46
2021/05/31 00:56:48;;;;;;;2.85;1.27;;;;;;;13.27;76.83;100573.48;1738434;80;21046;-45
2021/05/31 00:59:15;;;;;;;10.63;1.55;;;;;;;13.26;76.71;100577.96;1737545;81;21508;-44
2021/05/31 01:01:42;;;;;;;4.20;1.92;;;;;;;13.24;76.72;100579.03;1736239;80;20967;-42
2021/05/31 01:04:09;;;;;;;5.10;1.70;;;;;;;13.26;76.61;100579.79;1737354;81;21045;-44
2021/05/31 01:06:38;;;;;;;1.95;1.40;;;;;;;13.25;76.58;100577.56;1739957;80;20994;-44
2021/05/31 01:09:13;;;;;;;2.27;1.77;;;;;;;13.24;76.42;100589.73;1736743;80;20986;-44
2021/05/31 01:12:08;;;;;;;2.85;1.50;;;;;;;13.20;76.30;100583.26;1739975;80;21041;-44
2021/05/31 01:15:12;;;;;;;3.40;1.60;;;;;;;13.18;76.26;100583.84;1688892;82;21009;-44
2021/05/31 01:18:05;;;;;;;5.62;1.62;;;;;;;13.16;76.50;100581.73;1707966;82;21017;-43
2021/05/31 01:20:53;;;;;;;2.12;1.45;;;;;;;13.14;76.50;100585.00;1735417;80;21482;-42
2021/05/31 01:23:20;;;;;;;6.00;1.85;;;;;;;13.13;76.50;100587.31;1738640;80;21002;-42
2021/05/31 01:26:07;;;;;;;3.83;1.50;;;;;;;13.10;76.59;100583.50;1741036;80;21034;-41
2021/05/31 01:28:56;;;;;;;2.62;1.37;;;;;;;13.10;76.94;100583.96;1735827;80;21026;-42
2021/05/31 01:31:31;;;;;;;2.65;1.42;;;;;;;13.11;77.04;100583.88;1721545;81;21560;-40
2021/05/31 01:33:58;;;;;;;7.92;1.30;;;;;;;13.09;77.02;100577.75;1707684;82;21489;-41
2021/05/31 01:36:25;;;;;;;2.47;1.17;;;;;;;13.07;76.95;100582.84;1709915;82;20993;-39
2021/05/31 01:38:51;;;;;;;2.00;1.22;;;;;;;13.00;76.73;100582.38;1738384;81;21049;-39
2021/05/31 01:41:18;;;;;;;1.47;1.37;;;;;;;12.96;76.95;100581.73;1737112;80;21053;-42
2021/05/31 01:43:45;;;;;;;4.62;1.50;;;;;;;12.94;76.88;100586.81;1736506;81;21356;-38
2021/05/31 01:46:13;;;;;;;5.15;1.45;;;;;;;12.93;77.21;100584.62;1719833;82;21026;-39
2021/05/31 01:48:41;;;;;;;2.12;1.37;;;;;;;12.95;77.29;100581.83;1738913;80;21026;-42
2021/05/31 01:51:07;;;;;;;4.50;1.20;;;;;;;12.96;77.16;100583.08;1734725;82;21026;-47
2021/05/31 01:53:35;;;;;;;1.65;1.17;;;;;;;12.98;77.24;100587.86;1736543;80;21046;-42
2021/05/31 01:56:03;;;;;;;1.10;1.00;;;;;;;12.99;77.27;100585.54;1742586;80;21002;-43
2021/05/31 01:58:30;;;;;;;2.45;1.42;;;;;;;12.99;77.17;100584.69;1749959;80;21061;-43
2021/05/31 02:00:56;;;;;;;4.12;1.40;;;;;;;12.98;76.98;100581.16;1727530;81;21020;-45
2021/05/31 02:03:23;;;;;;;4.00;1.62;;;;;;;12.96;76.95;100584.91;1709383;80;21560;-43
2021/05/31 02:05:50;;;;;;;1.72;1.20;;;;;;;12.96;76.97;100595.12;1746751;81;21024;-41
2021/05/31 02:08:16;;;;;;;4.28;1.22;;;;;;;12.96;76.93;100599.14;1756921;80;21060;-39
2021/05/31 02:10:45;;;;;;;7.37;1.10;;;;;;;12.95;76.90;100597.89;1756205;80;21305;-44
2021/05/31 02:13:15;;;;;;;3.20;1.20;;;;;;;12.96;77.02;100599.14;1734085;80;21033;-41
2021/05/31 02:16:18;;;;;;;4.85;2.27;;;;;;;12.97;77.03;100598.65;1750080;80;21061;-44
2021/05/31 02:18:49;;;;;;;2.27;1.47;;;;;;;12.97;76.90;100597.31;1744343;80;20970;-41
2021/05/31 02:21:17;;;;;;;1.98;1.15;;;;;;;12.95;76.89;100603.23;1747926;80;20997;-42
2021/05/31 02:23:44;;;;;;;1.95;1.20;;;;;;;12.94;76.80;100600.20;1756285;80;21151;-43
2021/05/31 02:26:14;;;;;;;4.62;1.50;;;;;;;12.93;76.74;100607.38;1753087;80;21017;-43
2021/05/31 02:28:40;;;;;;;2.07;1.60;;;;;;;12.93;76.70;100605.19;1756444;80;21954;-43
2021/05/31 02:31:07;;;;;;;3.65;1.40;;;;;;;12.92;76.99;100609.66;1752082;80;20986;-49
2021/05/31 02:33:34;;;;;;;2.42;1.00;;;;;;;12.90;76.63;100605.36;1725308;81;21067;-42
2021/05/31 02:36:01;;;;;;;3.85;1.50;;;;;;;12.82;76.56;100603.69;1749522;80;21030;-44
2021/05/31 02:38:28;;;;;;;4.12;2.12;;;;;;;12.78;76.84;100615.08;1755263;80;21504;-44
2021/05/31 02:40:55;;;;;;;4.70;1.55;;;;;;;12.77;77.14;100614.68;1757850;80;21013;-45
2021/05/31 02:43:21;;;;;;;6.78;1.70;;;;;;;12.80;77.19;100622.53;1725467;81;21512;-44
2021/05/31 02:45:50;;;;;;;2.52;1.85;;;;;;;12.81;77.35;100627.40;1742962;81;21005;-45
2021/05/31 02:48:17;;;;;;;3.72;1.30;;;;;;;12.85;77.47;100626.22;1754360;80;21560;-47
2021/05/31 02:50:43;;;;;;;3.33;1.60;;;;;;;12.88;77.56;100628.72;1755897;80;21002;-43
2021/05/31 02:53:09;;;;;;;2.20;1.27;;;;;;;12.89;77.45;100625.07;1723350;81;21001;-46
2021/05/31 02:55:38;;;;;;;3.72;1.22;;;;;;;12.89;77.21;100622.39;1756329;80;21064;-49
2021/05/31 02:58:04;;;;;;;4.35;1.55;;;;;;;12.90;77.26;100624.09;1750760;80;21034;-47
2021/05/31 03:00:31;;;;;;;3.60;1.32;;;;;;;12.90;77.38;100621.42;1704271;82;21041;-50
2021/05/31 03:02:58;;;;;;;4.60;1.37;;;;;;;12.89;77.43;100622.39;1738032;80;20998;-47
2021/05/31 03:05:29;;;;;;;3.50;1.40;;;;;;;12.85;76.92;100627.11;1737678;81;20990;-50
2021/05/31 03:07:56;;;;;;;7.62;1.70;;;;;;;12.81;76.78;100626.06;1733727;81;20994;-51
2021/05/31 03:10:24;;;;;;;3.87;1.37;;;;;;;12.76;76.70;100623.20;1736893;80;21018;-54
2021/05/31 03:12:51;;;;;;;2.80;1.65;;;;;;;12.74;76.67;100623.77;1737009;81;20962;-54
2021/05/31 03:15:18;;;;;;;3.85;1.72;;;;;;;12.70;76.64;100628.08;1739474;81;21034;-54
2021/05/31 03:17:46;;;;;;;3.65;1.85;;;;;;;12.66;77.05;100623.42;1735474;80;21368;-45
2021/05/31 03:20:14;;;;;;;2.22;1.40;;;;;;;12.66;77.43;100619.41;1708518;82;21053;-52
2021/05/31 03:22:41;;;;;;;2.20;1.70;;;;;;;12.68;77.77;100620.17;1744559;80;21014;-54
2021/05/31 03:25:10;;;;;;;3.30;1.57;;;;;;;12.74;78.18;100625.11;1738164;80;21085;-55
2021/05/31 03:27:40;;;;;;;3.62;2.35;;;;;;;12.80;78.26;100623.87;1734250;80;20993;-53
2021/05/31 03:30:09;;;;;;;3.80;1.57;;;;;;;12.82;77.69;100633.97;1744243;81;20986;-55
2021/05/31 03:32:36;;;;;;;4.30;1.60;;;;;;;12.83;77.85;100630.84;1744026;81;20978;-50
2021/05/31 03:35:04;;;;;;;2.70;1.67;;;;;;;12.86;77.79;100634.64;1743008;80;21014;-50
2021/05/31 03:37:31;;;;;;;2.40;1.35;;;;;;;12.89;77.79;100630.42;1734519;81;21485;-51
2021/05/31 03:39:58;;;;;;;2.70;1.45;;;;;;;12.94;77.96;100630.98;1739359;80;20969;-49
2021/05/31 03:42:24;;;;;;;3.58;1.52;;;;;;;12.97;77.94;100628.95;1734432;80;21013;-47
2021/05/31 03:44:50;;;;;;;4.37;1.67;;;;;;;13.01;77.65;100630.95;1740300;80;21509;-50
2021/05/31 03:47:17;;;;;;;3.77;1.47;;;;;;;13.05;77.44;100627.58;1735170;81;20958;-50
2021/05/31 03:49:44;;;;;;;2.40;1.60;;;;;;;13.08;77.26;100622.02;1739533;80;21015;-48
2021/05/31 03:52:11;;;;;;;2.40;1.40;;;;;;;13.08;77.04;100618.89;1705476;82;20990;-50
2021/05/31 03:54:38;;;;;;;1.75;1.27;;;;;;;13.13;77.10;100617.25;1740738;81;21490;-51
2021/05/31 03:57:05;;;;;;;3.40;1.20;;;;;;;13.18;76.91;100616.45;1735845;80;20947;-50
2021/05/31 03:59:33;;;;;;;5.65;2.27;;;;;;;13.23;76.82;100621.47;1755986;80;21677;-52
2021/05/31 04:02:00;;;;;;;4.08;1.60;;;;;;;13.26;76.97;100610.58;1757061;80;21010;-55
2021/05/31 04:04:39;;;;;;;1.95;1.45;;;;;;;13.31;76.93;100612.02;1756610;80;21009;-53
2021/05/31 04:12:27;;;;;;;2.95;1.35;;;;;;;13.46;76.32;100606.58;1692254;82;21034;-58
2021/05/31 04:14:53;;;;;;;4.10;1.65;;;;;;;13.48;76.13;100609.53;1700113;83;21045;-54
2021/05/31 04:17:20;;;;;;;3.60;2.98;;;;;;;13.54;76.24;100607.76;1701692;82;21033;-53
2021/05/31 04:19:47;;;;;;;3.02;2.15;;;;;;;13.57;75.82;100614.23;1709528;82;21959;-59
2021/05/31 04:22:13;;;;;;;3.08;1.57;;;;;;;13.62;75.84;100611.25;1706877;82;21615;-52
2021/05/31 04:24:40;;;;;;;3.50;2.20;;;;;;;13.67;76.00;100613.13;1704752;83;21108;-55
2021/05/31 04:27:06;;;;;;;3.45;1.67;;;;;;;13.74;75.96;100619.78;1707751;82;21013;-51
2021/05/31 04:29:33;;;;;;;3.65;1.77;;;;;;;13.78;75.54;100621.75;1707236;82;21013;-51
2021/05/31 04:31:59;;;;;;;4.05;1.67;;;;;;;13.78;74.31;100619.06;1706872;82;21069;-52
2021/05/31 04:34:26;;;;;;;2.90;1.62;;;;;;;13.72;73.55;100620.84;1647958;86;21017;-50
2021/05/31 04:36:52;;;;;;;3.40;1.62;;;;;;;13.65;73.60;100617.72;1705733;83;21369;-48
2021/05/31 04:39:19;;;;;;;3.12;1.60;;;;;;;13.62;74.15;100616.12;1698409;82;21090;-45
2021/05/31 04:41:45;;;;;;;2.20;1.45;;;;;;;13.62;74.51;100618.80;1698972;82;21882;-45
2021/05/31 04:44:12;;;;;;;2.40;1.57;;;;;;;13.66;74.50;100615.89;1675944;83;21034;-44
2021/05/31 04:46:40;;;;;;;1.67;1.35;;;;;;;13.64;73.91;100617.36;1754878;80;21365;-49
2021/05/31 04:49:06;;;;;;;2.15;1.65;;;;;;;13.63;74.58;100618.30;1758906;80;20998;-46
2021/05/31 04:51:37;;;;;;;5.87;2.25;;;;;;;13.65;74.82;100625.77;1755844;81;20965;-43
2021/05/31 04:54:04;;;;;;;;;;;;;;;13.66;74.32;100620.80;1761819;80;20977;-43
2021/05/31 04:56:31;;;;;;;4.92;1.65;;;;;;;13.67;74.66;100619.82;1757215;80;20514;-46
2021/05/31 04:58:57;;;;;;;3.35;1.67;;;;;;;13.72;74.66;100625.72;1723462;81;21063;-49
2021/05/31 05:01:24;;;;;;;5.87;1.50;;;;;;;13.77;74.11;100622.23;1735450;81;20997;-45
2021/05/31 05:03:51;;;;;;;2.92;1.45;;;;;;;13.79;73.71;100626.16;1738684;81;21477;-47
2021/05/31 05:06:17;;;;;;;1.82;1.60;;;;;;;13.76;72.44;100623.22;1734668;81;21037;-44
2021/05/31 05:08:44;;;;;;;2.52;1.47;;;;;;;13.69;72.23;100629.11;1736298;81;21048;-44
2021/05/31 05:11:11;;;;;;;1.82;1.17;;;;;;;13.69;73.05;100626.43;1731866;81;21022;-43
2021/05/31 05:13:38;;;;;;;2.22;1.40;;;;;;;13.73;72.94;100628.77;1738551;81;21560;-44
2021/05/31 05:16:05;;;;;;;2.92;1.47;;;;;;;13.75;71.26;100638.05;1735410;81;21496;-42
2021/05/31 05:18:33;;;;;;;1.47;1.02;;;;;;;13.72;72.06;100631.08;1734160;81;21544;-43
2021/05/31 05:20:59;;;;;;;4.62;1.70;;;;;;;13.75;72.64;100635.37;1741339;81;20978;-42
2021/05/31 05:23:26;;;;;;;2.15;1.25;;;;;;;13.75;72.13;100631.34;1727827;81;21012;-44
2021/05/31 05:25:53;;;;;;;2.08;1.37;;;;;;;13.73;72.41;100634.13;1737074;81;21557;-44
2021/05/31 05:28:19;;;;;;;2.98;1.30;;;;;;;13.76;72.64;100634.42;1736363;81;20969;-44
2021/05/31 05:30:49;;;;;;;1.90;1.30;;;;;;;13.81;72.64;100633.63;1739669;81;20989;-44
2021/05/31 05:33:14;;;;;;;3.98;1.70;;;;;;;13.85;72.04;100633.77;1736335;81;21025;-43
2021/05/31 05:35:45;;;;;;;2.95;1.47;;;;;;;13.89;72.36;100629.91;1739086;81;21043;-43
2021/05/31 05:48:29;;;;;;;3.17;1.17;;;;;;;14.12;71.32;100634.14;1737638;81;20965;-43
2021/05/31 05:51:09;;;;;;;1.25;1.15;;;;;;;14.15;70.93;100636.11;1736759;81;21500;-46
2021/05/31 05:53:42;;;;;;;1.87;1.00;;;;;;;14.19;70.99;100635.42;1734646;81;20974;-47
2021/05/31 05:56:13;;;;;;;2.05;1.62;;;;;;;14.22;70.54;100632.03;1736504;81;21002;-45
2021/05/31 05:58:40;;;;;;;1.47;1.12;;;;;;;14.26;70.69;100635.34;1736025;81;22011;-48
2021/05/31 06:01:07;;;;;;;2.22;1.57;;;;;;;14.23;69.79;100634.22;1736432;81;21079;-42
2021/05/31 06:03:34;;;;;;;2.80;1.07;;;;;;;14.15;69.58;100633.92;1736263;81;21029;-43
2021/05/31 06:06:01;;;;;;;4.10;1.22;;;;;;;14.05;69.63;100636.39;1742147;80;21046;-49
2021/05/31 06:08:28;;;;;;;5.87;1.37;;;;;;;13.95;70.37;100632.16;1736885;81;21068;-56
2021/05/31 06:10:54;;;;;;;1.40;1.25;;;;;;;13.92;70.92;100636.39;1735283;81;21028;-51
2021/05/31 06:13:23;;;;;;;1.95;1.25;;;;;;;13.90;71.22;100636.13;1700618;82;21964;-52
2021/05/31 06:15:54;;;;;;;1.95;1.10;;;;;;;13.91;71.50;100638.71;1733704;80;21006;-45
2021/05/31 06:18:20;;;;;;;1.98;1.17;;;;;;;13.92;71.49;100643.59;1734388;81;21002;-44
2021/05/31 06:20:48;;;;;;;3.20;1.77;;;;;;;13.88;71.30;100636.22;1736491;80;21018;-45
2021/05/31 06:23:14;;;;;;;2.10;1.55;;;;;;;13.86;71.69;100639.52;1739107;80;21715;-45
2021/05/31 06:25:41;;;;;;;5.20;2.08;;;;;;;13.87;71.61;100641.70;1733656;80;21057;-45
2021/05/31 06:28:08;;;;;;;2.20;1.70;;;;;;;13.87;72.05;100637.20;1704797;82;21053;-45
2021/05/31 06:30:35;;;;;;;4.85;1.72;;;;;;;13.93;72.31;100641.27;1734928;81;20982;-44
2021/05/31 06:33:02;;;;;;;5.75;1.42;;;;;;;14.05;73.48;100644.43;1734211;80;20994;-46
2021/05/31 06:35:29;;;;;;;2.37;1.65;;;;;;;14.17;72.66;100646.25;1739108;80;21478;-45
2021/05/31 06:38:02;;;;;;;2.20;1.37;;;;;;;14.29;72.13;100641.84;1737087;80;20994;-56
2021/05/31 06:40:35;;;;;;;3.77;1.37;;;;;;;14.43;72.07;100651.58;1737149;80;21005;-46
2021/05/31 06:43:03;;;;;;;4.22;1.40;;;;;;;14.50;67.89;100647.48;1737914;81;21030;-41
2021/05/31 06:45:30;;;;;;;3.25;1.62;;;;;;;14.42;66.80;100649.38;1738566;80;20991;-43
2021/05/31 06:48:00;;;;;;;2.30;1.40;;;;;;;14.29;65.80;100648.55;1735526;80;20998;-42
2021/05/31 06:50:30;;;;;;;2.60;1.13;;;;;;;14.20;65.89;100646.03;1738679;81;21073;-41
2021/05/31 06:52:57;;;;;;;3.73;1.60;;;;;;;14.19;66.30;100645.66;1739578;80;21001;-40
2021/05/31 06:55:25;;;;;;;4.47;1.12;;;;;;;14.27;67.20;100658.53;1702962;82;21753;-49
2021/05/31 06:57:53;;;;;;;2.65;1.40;;;;;;;14.34;66.97;100657.13;1738611;80;20982;-40
2021/05/31 07:00:23;;;;;;;4.75;2.45;;;;;;;14.36;66.36;100653.83;1744463;80;20994;-40
2021/05/31 07:03:14;;;;;;;1.75;1.30;;;;;;;14.36;66.10;100655.66;1734519;81;21588;-43
2021/05/31 07:05:56;;;;;;;2.37;1.35;;;;;;;14.33;65.99;100654.05;1672300;84;21152;-45
2021/05/31 07:08:31;;;;;;;1.27;1.10;;;;;;;14.28;65.49;100657.05;1703245;82;21069;-46
2021/05/31 07:11:10;;;;;;;4.20;1.50;;;;;;;14.29;66.05;100654.77;1706794;82;20989;-47
2021/05/31 07:13:30;;;;;;;2.58;1.27;;;;;;;14.34;66.35;100655.78;1704012;82;21021;-49
2021/05/31 07:15:57;;;;;;;3.15;1.20;;;;;;;14.34;65.46;100656.25;1703491;82;21001;-48
2021/05/31 07:18:24;;;;;;;4.22;1.65;;;;;;;14.31;66.14;100654.64;1707369;82;21029;-48
2021/05/31 07:20:52;;;;;;;1.98;1.40;;;;;;;14.29;66.29;100649.41;1701677;82;21065;-46
2021/05/31 07:23:20;;;;;;;6.30;1.72;;;;;;;14.28;66.74;100650.35;1709254;82;21022;-46
2021/05/31 07:25:46;;;;;;;6.62;1.80;;;;;;;14.24;66.75;100644.85;1709840;82;21634;-45
2021/05/31 07:28:14;;;;;;;3.75;1.25;;;;;;;14.21;66.31;100653.58;1709422;82;20999;-48
2021/05/31 07:30:41;;;;;;;1.90;1.10;;;;;;;14.17;66.90;100656.98;1708229;82;21025;-46
2021/05/31 07:33:11;;;;;;;1.90;1.57;;;;;;;14.20;67.61;100654.56;1701536;82;21063;-43
2021/05/31 07:35:38;;;;;;;1.45;1.00;;;;;;;14.25;67.58;100657.77;1708114;82;21044;-44
2021/05/31 07:38:05;;;;;;;1.55;1.20;;;;;;;14.28;67.36;100667.78;1708717;82;21590;-45
2021/05/31 07:40:31;;;;;;;1.70;1.00;;;;;;;14.31;67.18;100668.55;1674142;84;21083;-48
2021/05/31 07:42:58;;;;;;;1.52;0.90;;;;;;;14.35;67.25;100669.56;1703540;82;21032;-47
2021/05/31 07:45:25;;;;;;;5.80;1.40;;;;;;;14.42;67.49;100674.02;1703167;82;21540;-39
2021/05/31 07:47:52;;;;;;;1.00;0.90;;;;;;;14.48;67.65;100673.56;1698035;82;21022;-39
2021/05/31 07:50:20;;;;;;;1.80;1.00;;;;;;;14.50;67.05;100670.30;1697775;82;21028;-43
2021/05/31 07:52:47;;;;;;;1.00;0.82;;;;;;;14.50;66.89;100669.80;1701573;83;21025;-41
2021/05/31 07:55:17;;;;;;;1.02;0.57;;;;;;;14.53;66.45;100671.89;1710674;82;21057;-39
2021/05/31 07:57:44;;;;;;;1.02;0.93;;;;;;;14.54;65.97;100673.63;1735822;81;20993;-38
2021/05/31 08:00:15;;;;;;;3.30;1.02;;;;;;;14.57;65.83;100668.06;1740774;80;20971;-36
2021/05/31 08:02:48;;;;;;;0.93;0.85;;;;;;;14.61;65.70;100666.86;1752419;80;21001;-40
2021/05/31 08:05:18;;;;;;;1.47;0.50;;;;;;;14.66;65.41;100670.91;1758736;80;20997;-38
2021/05/31 08:07:44;;;;;;;1.82;0.50;;;;;;;14.73;65.64;100676.70;1756085;80;21033;-48
2021/05/31 08:10:12;;;;;;;0.40;0.40;;;;;;;14.76;64.46;100676.48;1760044;80;21331;-45
2021/05/31 08:12:40;;;;;;;0.50;0.50;;;;;;;14.77;63.55;100671.98;1758018;80;21516;-49
2021/05/31 08:15:09;;;;;;;0.80;0.50;;;;;;;14.74;62.06;100665.48;1751186;80;20993;-50
2021/05/31 08:17:37;;;;;;;1.00;0.53;;;;;;;14.71;62.80;100682.17;1755474;80;21017;-40
2021/05/31 08:20:06;;;;;;;0.65;0.55;;;;;;;14.73;63.16;100681.22;1756929;80;21751;-40
2021/05/31 08:22:32;;;;;;;2.05;1.30;;;;;;;14.76;63.29;100683.19;1750546;80;21000;-47
2021/05/31 08:25:01;;;;;;;4.30;3.50;;;;;;;14.81;63.35;100685.05;1746391;80;21075;-46
2021/05/31 08:27:27;;;;;;;0.82;0.60;;;;;;;14.85;63.80;100688.39;1752283;80;20998;-47
2021/05/31 08:29:54;;;;;;;0.50;0.42;;;;;;;14.91;63.82;100685.23;1756947;80;21032;-46
2021/05/31 08:32:20;;;;;;;1.95;0.62;;;;;;;14.94;63.51;100682.32;1754212;80;21519;-46
2021/05/31 08:34:47;;;;;;;0.82;0.50;;;;;;;14.97;63.35;100683.92;1756375;80;21512;-43
2021/05/31 08:37:15;;;;;;;0.90;0.40;;;;;;;15.00;62.76;100687.75;1756917;80;21838;-41
2021/05/31 08:39:46;;;;;;;2.05;0.60;;;;;;;14.99;62.54;100691.38;1757226;80;21412;-39
2021/05/31 08:42:13;;;;;;;0.30;0.30;;;;;;;14.98;62.41;100689.69;1756214;80;21567;-41
2021/05/31 08:44:40;;;;;;;0.95;0.33;;;;;;;14.96;61.80;100693.81;1755784;80;21013;-45
2021/05/31 08:47:09;;;;;;;2.02;0.55;;;;;;;14.95;61.92;100692.60;1755447;80;21541;-39
2021/05/31 08:49:36;;;;;;;0.82;0.30;;;;;;;14.97;61.90;100689.30;1752696;80;21543;-47
2021/05/31 08:52:03;;;;;;;1.20;0.62;;;;;;;14.99;62.05;100698.95;1720162;81;21024;-45
2021/05/31 08:54:30;;;;;;;1.02;0.40;;;;;;;15.02;62.18;100701.89;1753561;80;21351;-45
2021/05/31 08:56:57;;;;;;;3.05;0.50;;;;;;;15.03;62.14;100701.80;1757214;80;21045;-50
2021/05/31 08:59:25;;;;;;;2.87;0.42;;;;;;;15.05;62.25;100700.35;1744749;80;21096;-47
2021/05/31 09:01:52;;;;;;;0.78;0.50;;;;;;;15.05;62.15;100701.20;1753151;80;21051;-49
2021/05/31 09:04:18;;;;;;;0.25;0.25;;;;;;;15.06;61.80;100698.02;1753827;80;21041;-46
2021/05/31 09:06:56;;;;;;;0.28;0.23;;;;;;;15.09;62.21;100700.02;1755458;80;21081;-41
2021/05/31 09:09:43;;;;;;;0.57;0.55;;;;;;;15.13;61.81;100696.61;1754477;80;21411;-47
2021/05/31 09:12:11;;;;;;;1.00;0.55;;;;;;;15.16;62.33;100700.40;1755489;80;21017;-49
2021/05/31 09:14:42;;;;;;;1.72;0.45;;;;;;;15.21;62.47;100709.46;1752826;80;21036;-52
2021/05/31 09:17:10;;;;;;;2.65;0.60;;;;;;;15.23;61.96;100708.87;1722720;81;20989;-59
2021/05/31 09:19:47;;;;;;;0.70;0.45;;;;;;;15.22;62.00;100710.70;1757996;80;22001;-47
2021/05/31 09:22:14;;;;;;;1.27;0.60;;;;;;;15.23;61.96;100711.55;1753297;80;21017;-46
2021/05/31 09:24:56;;;;;;;1.42;0.47;;;;;;;15.23;62.50;100707.53;1745727;80;21013;-50
2021/05/31 09:27:23;;;;;;;1.90;0.60;;;;;;;15.25;62.90;100713.65;1746706;80;21037;-44
2021/05/31 09:29:59;;;;;;;0.42;0.40;;;;;;;15.27;62.78;100715.25;1756879;80;21001;-42
2021/05/31 09:33:09;;;;;;;2.40;0.60;;;;;;;15.25;61.85;100708.28;1753930;80;21657;-46
2021/05/31 09:36:35;;;;;;;0.82;0.80;;;;;;;15.26;62.15;100712.66;1626334;87;21146;-55
2021/05/31 09:39:38;;;;;;;1.02;0.70;;;;;;;15.25;61.58;100714.98;1480154;95;21786;-42
2021/05/31 09:42:16;;;;;;;0.37;0.37;;;;;;;15.23;61.07;100716.44;1480728;95;21124;-42
2021/05/31 09:44:45;;;;;;;0.80;0.40;;;;;;;15.23;61.48;100719.61;1479935;95;21153;-44
2021/05/31 09:47:12;;;;;;;1.00;0.70;;;;;;;15.22;61.23;100723.25;1478578;95;21092;-42
2021/05/31 09:49:39;;;;;;;1.42;0.55;;;;;;;15.22;61.20;100725.48;1480343;95;21610;-46
2021/05/31 09:52:10;;;;;;;1.25;0.57;;;;;;;15.21;60.55;100721.05;1479693;95;21710;-51
2021/05/31 09:54:44;;;;;;;0.40;0.40;;;;;;;15.21;60.88;100718.86;1479273;95;21177;-40
2021/05/31 09:57:23;;;;;;;1.02;0.37;;;;;;;15.23;61.31;100717.78;1481206;95;21099;-47
2021/05/31 09:59:56;;;;;;;2.35;0.62;;;;;;;15.24;61.49;100714.11;1448955;97;21093;-47
2021/05/31 10:02:52;;;;;;;4.05;0.53;;;;;;;15.25;61.33;100717.68;1478403;95;21486;-48
2021/05/31 10:10:22;;;;;;;0.75;0.50;;;;;;;15.20;61.40;100718.02;1461890;96;21627;-48
2021/05/31 10:12:50;;;;;;;1.05;0.57;;;;;;;15.22;61.49;100719.22;1518827;91;21171;-44
2021/05/31 10:15:23;;;;;;;1.30;0.53;;;;;;;15.22;60.57;100724.59;1611788;85;21049;-54
2021/05/31 10:17:55;;;;;;;1.25;0.50;;;;;;;15.20;61.35;100724.73;1597539;87;21018;-48
2021/05/31 10:20:23;;;;;;;2.00;0.50;;;;;;;15.19;61.40;100718.97;1638844;85;21584;-48
2021/05/31 10:22:49;;;;;;;1.15;0.50;;;;;;;15.21;61.57;100725.58;1646218;85;21137;-46
2021/05/31 10:25:16;;;;;;;1.17;0.60;;;;;;;15.22;61.58;100731.31;1614902;87;21116;-46
2021/05/31 10:27:45;;;;;;;0.68;0.47;;;;;;;15.22;61.74;100729.51;1576273;89;21121;-45
2021/05/31 10:30:15;;;;;;;1.10;0.50;;;;;;;15.24;62.09;100736.94;1600487;88;21001;-45
2021/05/31 10:32:41;;;;;;;0.80;0.62;;;;;;;15.25;61.73;100735.98;1641566;85;21604;-49
2021/05/31 10:35:26;;;;;;;1.45;0.60;;;;;;;15.26;60.95;100730.12;1615945;86;21786;-46
2021/05/31 10:37:54;;;;;;;0.93;0.40;;;;;;;15.23;61.23;100729.02;1642892;85;21106;-47
2021/05/31 10:40:33;;;;;;;4.10;0.60;;;;;;;15.24;61.50;100730.72;1635710;85;21148;-47
2021/05/31 10:43:01;;;;;;;1.65;0.75;;;;;;;15.27;62.02;100734.05;1599160;87;21041;-45
2021/05/31 10:45:30;;;;;;;0.85;0.50;;;;;;;15.28;61.53;100729.04;1531596;89;21107;-49
2021/05/31 10:48:10;;;;;;;0.47;0.42;;;;;;;15.27;60.96;100728.68;1588478;88;21118;-46
2021/05/31 10:50:41;;;;;;;1.27;0.40;;;;;;;15.25;60.47;100723.90;1589958;88;21073;-50
2021/05/31 10:53:31;;;;;;;1.20;0.47;;;;;;;15.22;60.97;100724.59;1587905;88;21403;-51
2021/05/31 10:55:58;;;;;;;3.40;0.72;;;;;;;15.23;61.57;100719.13;1590850;88;21029;-49
2021/05/31 10:58:36;;;;;;;0.82;0.50;;;;;;;15.26;61.43;100720.23;1592624;88;21051;-51
2021/05/31 11:01:14;;;;;;;3.15;1.80;;;;;;;15.29;61.53;100721.34;1593184;88;21013;-49
2021/05/31 11:04:01;;;;;;;1.85;0.75;;;;;;;15.34;61.66;100720.51;1637127;85;21081;-46
2021/05/31 11:06:36;;;;;;;1.17;0.60;;;;;;;15.39;61.24;100724.69;1642095;85;21077;-48
2021/05/31 11:09:16;;;;;;;0.95;0.60;;;;;;;15.40;60.77;100719.71;1600100;87;21114;-45
2021/05/31 11:11:50;;;;;;;0.82;0.50;;;;;;;15.36;60.86;100719.91;1628946;85;21110;-48
2021/05/31 11:14:39;;;;;;;0.70;0.55;;;;;;;15.35;59.89;100718.70;1597948;87;21106;-45
2021/05/31 11:17:11;;;;;;;0.45;0.40;;;;;;;15.32;60.40;100717.56;1639432;85;21030;-46
2021/05/31 11:19:47;;;;;;;1.32;0.40;;;;;;;15.34;60.59;100715.63;1662231;84;21001;-41
2021/05/31 11:22:26;;;;;;;0.65;0.30;;;;;;;15.36;60.97;100720.41;1738490;80;21030;-43
2021/05/31 11:24:59;;;;;;;1.67;0.30;;;;;;;15.39;61.02;100717.48;1705110;82;20993;-44
2021/05/31 11:27:29;;;;;;;0.70;0.42;;;;;;;15.42;60.46;100721.30;1695733;83;20991;-44
2021/05/31 11:29:59;;;;;;;0.53;0.40;;;;;;;15.43;60.50;100721.66;1695727;83;21039;-44
2021/05/31 11:32:26;;;;;;;0.68;0.40;;;;;;;15.43;60.11;100720.33;1698085;83;21023;-42
2021/05/31 11:34:54;;;;;;;0.53;0.40;;;;;;;15.45;60.38;100720.22;1738641;80;21011;-45
2021/05/31 11:37:25;;;;;;;1.17;0.30;;;;;;;15.48;60.39;100719.48;1738603;80;21557;-41
2021/05/31 11:39:52;;;;;;;1.67;0.47;;;;;;;15.52;59.92;100713.38;1739981;80;20991;-45
2021/05/31 11:42:19;;;;;;;1.02;0.50;;;;;;;15.54;59.87;100719.50;1736549;80;21010;-38
2021/05/31 11:44:56;;;;;;;1.12;0.50;;;;;;;15.54;60.10;100715.47;1738206;81;21006;-38
2021/05/31 11:48:20;;;;;;;0.98;0.60;;;;;;;15.55;60.21;100714.03;1731920;80;21030;-46
2021/05/31 11:50:57;;;;;;;2.52;0.68;;;;;;;15.58;59.72;100712.94;1730884;80;21680;-41
2021/05/31 11:53:23;;;;;;;0.62;0.45;;;;;;;15.65;60.18;100705.25;1702615;82;21026;-42
2021/05/31 11:55:50;;;;;;;0.82;0.40;;;;;;;15.71;60.38;100707.52;1694405;83;21015;-43
2021/05/31 11:58:17;;;;;;;2.27;0.65;;;;;;;15.78;60.01;100708.77;1705584;83;21052;-41